Time;durP1;ratioP1;P1;durP2;ratioP2;P2;SDS_P1;SDS_P2;PMS_P1;PMS_P2;Temp;Humidity;BMP_temperature;BMP_pressure;BME280_temperature;BME280_humidity;BME280_pressure;Samples;Min_cycle;Max_cycle;Signal;HPM_P1;HPM_P2
2021/12/27 00:03:49;;;;;;;9.97;8.40;;;5.20;99.90;;;;;;10350822;28;20435;-75
2021/12/27 00:08:51;;;;;;;9.87;8.07;;;5.20;99.90;;;;;;10343571;28;20218;-75
2021/12/27 00:13:51;;;;;;;9.60;7.60;;;5.20;99.90;;;;;;10352950;28;20225;-75
2021/12/27 00:18:52;;;;;;;9.70;7.57;;;5.10;99.90;;;;;;10349128;28;20692;-75
2021/12/27 00:23:53;;;;;;;12.67;8.63;;;5.20;99.90;;;;;;10344377;28;20218;-75
2021/12/27 00:28:53;;;;;;;10.40;7.83;;;5.20;99.90;;;;;;10355799;28;20252;-75
2021/12/27 00:33:54;;;;;;;9.03;8.00;;;5.20;99.90;;;;;;10350018;28;20234;-74
2021/12/27 00:38:54;;;;;;;9.20;7.67;;;5.10;99.90;;;;;;10347040;28;20296;-74
2021/12/27 00:43:55;;;;;;;8.67;7.50;;;5.10;99.90;;;;;;10347783;28;20217;-75
2021/12/27 00:48:55;;;;;;;9.30;7.47;;;5.00;99.90;;;;;;10343332;28;20234;-75
2021/12/27 00:53:56;;;;;;;12.13;8.47;;;5.00;99.90;;;;;;10348332;28;20221;-74
2021/12/27 00:58:57;;;;;;;10.33;8.73;;;5.00;99.90;;;;;;10343647;28;20326;-74
2021/12/27 01:03:59;;;;;;;11.50;9.50;;;5.00;99.90;;;;;;10346723;28;20320;-74
2021/12/27 01:08:59;;;;;;;13.17;10.13;;;5.10;99.90;;;;;;10342555;28;20594;-74
2021/12/27 01:14:09;;;;;;;10.83;8.97;;;5.10;99.90;;;;;;10347359;28;20232;-74
2021/12/27 01:19:11;;;;;;;11.40;8.70;;;5.10;99.90;;;;;;10349479;28;20648;-74
2021/12/27 01:24:12;;;;;;;13.50;9.90;;;5.10;99.90;;;;;;10345495;28;20222;-74
2021/12/27 01:29:12;;;;;;;12.77;9.87;;;5.10;99.90;;;;;;10358552;28;20700;-75
2021/12/27 01:34:13;;;;;;;13.57;10.13;;;5.10;99.90;;;;;;10360135;28;20221;-75
2021/12/27 01:39:13;;;;;;;12.60;9.60;;;5.10;99.90;;;;;;10352650;28;20217;-75
2021/12/27 01:44:14;;;;;;;14.10;10.23;;;5.10;99.90;;;;;;10348872;28;20230;-74
2021/12/27 01:49:15;;;;;;;12.93;9.93;;;5.10;99.90;;;;;;10352920;28;20815;-74
2021/12/27 01:54:15;;;;;;;12.33;9.97;;;5.10;99.90;;;;;;10370492;28;20209;-75
2021/12/27 01:59:16;;;;;;;14.60;10.53;;;5.10;99.90;;;;;;10352072;28;20818;-75
2021/12/27 02:04:17;;;;;;;16.13;11.13;;;5.20;99.90;;;;;;10353198;28;20291;-74
2021/12/27 02:09:23;;;;;;;12.90;9.77;;;5.20;99.90;;;;;;10356085;28;20898;-74
2021/12/27 02:14:24;;;;;;;16.80;11.43;;;5.20;99.90;;;;;;10351390;28;20229;-75
2021/12/27 02:19:24;;;;;;;16.77;10.97;;;5.20;99.90;;;;;;10362742;28;20213;-74
2021/12/27 02:24:25;;;;;;;18.03;11.67;;;5.20;99.90;;;;;;10349654;28;20225;-74
2021/12/27 02:29:26;;;;;;;15.07;11.67;;;5.20;99.90;;;;;;10360236;28;20244;-74
2021/12/27 02:34:26;;;;;;;18.63;12.17;;;5.20;99.90;;;;;;10358668;28;20712;-74
2021/12/27 02:39:29;;;;;;;16.87;10.70;;;5.20;99.90;;;;;;10348567;28;20210;-74
2021/12/27 02:44:29;;;;;;;19.03;11.23;;;5.20;99.90;;;;;;10359828;28;20221;-74
2021/12/27 02:49:30;;;;;;;22.37;12.70;;;5.10;99.90;;;;;;10353787;28;20236;-75
2021/12/27 02:54:30;;;;;;;18.57;12.27;;;5.10;99.90;;;;;;10351202;28;20229;-74
2021/12/27 02:59:31;;;;;;;20.80;12.03;;;5.10;99.90;;;;;;10344218;28;20260;-75
2021/12/27 03:04:36;;;;;;;23.47;13.10;;;5.20;99.90;;;;;;10345236;28;20309;-74
2021/12/27 03:09:39;;;;;;;20.27;13.03;;;5.10;99.90;;;;;;10352510;28;20233;-74
2021/12/27 03:14:39;;;;;;;24.90;13.33;;;5.20;99.90;;;;;;10351055;28;20260;-74
2021/12/27 03:19:40;;;;;;;23.23;13.33;;;5.10;99.90;;;;;;10343824;28;20217;-73
2021/12/27 03:24:40;;;;;;;25.43;13.13;;;5.10;99.90;;;;;;10351779;28;20283;-75
2021/12/27 03:29:41;;;;;;;29.17;15.10;;;5.10;99.90;;;;;;10356915;28;20312;-73
2021/12/27 03:34:53;;;;;;;26.77;13.33;;;5.20;99.90;;;;;;10350490;28;20221;-74
2021/12/27 03:39:53;;;;;;;26.07;13.63;;;5.30;99.90;;;;;;10351037;28;20218;-74
2021/12/27 03:44:54;;;;;;;28.70;14.27;;;5.30;99.90;;;;;;10342584;28;20228;-74
2021/12/27 03:49:54;;;;;;;23.40;13.23;;;5.20;99.90;;;;;;10312673;28;1056172;-74
2021/12/27 03:54:55;;;;;;;27.53;14.87;;;5.20;99.90;;;;;;10351970;28;20639;-74
2021/12/27 04:00:16;;;;;;;27.53;14.13;;;5.20;99.90;;;;;;10350602;28;20205;-74
2021/12/27 04:05:19;;;;;;;35.07;17.73;;;5.20;99.90;;;;;;10352112;28;20236;-74
2021/12/27 04:10:19;;;;;;;39.20;18.77;;;5.30;99.90;;;;;;10353046;28;20194;-74
2021/12/27 04:15:20;;;;;;;39.87;19.00;;;5.40;99.90;;;;;;10348665;28;20301;-74
2021/12/27 04:20:21;;;;;;;40.57;21.17;;;5.40;99.90;;;;;;10353351;28;20312;-75
2021/12/27 04:25:23;;;;;;;25.67;14.23;;;5.40;99.90;;;;;;10356118;28;20777;-74
2021/12/27 04:30:23;;;;;;;22.53;12.80;;;5.50;99.90;;;;;;10345254;28;20798;-74
2021/12/27 04:35:24;;;;;;;24.37;12.53;;;5.40;99.90;;;;;;10346797;28;20231;-74
2021/12/27 04:40:27;;;;;;;25.00;12.47;;;5.30;99.90;;;;;;10364578;28;21055;-74
2021/12/27 04:45:28;;;;;;;21.80;11.53;;;5.20;99.90;;;;;;10348100;28;20226;-74
2021/12/27 04:50:29;;;;;;;21.93;12.07;;;5.10;99.90;;;;;;10342199;28;20224;-74
2021/12/27 04:55:30;;;;;;;21.00;11.90;;;5.10;99.90;;;;;;10343895;28;20226;-74
2021/12/27 05:00:31;;;;;;;19.43;11.47;;;5.20;99.90;;;;;;10347670;28;20945;-75
2021/12/27 05:05:32;;;;;;;22.37;12.73;;;5.30;99.90;;;;;;10350545;28;20597;-74
2021/12/27 05:10:35;;;;;;;20.97;12.93;;;5.30;99.90;;;;;;10355456;28;20216;-74
2021/12/27 05:15:35;;;;;;;16.33;10.97;;;5.20;99.90;;;;;;10355615;28;20229;-74
2021/12/27 05:20:36;;;;;;;16.13;10.63;;;5.20;99.90;;;;;;10349436;28;20784;-74
2021/12/27 05:25:36;;;;;;;16.20;10.80;;;5.20;99.90;;;;;;10341934;28;20245;-74
2021/12/27 05:30:38;;;;;;;17.53;11.10;;;5.30;99.90;;;;;;10355812;28;20224;-74
2021/12/27 05:35:39;;;;;;;15.80;10.67;;;5.40;99.90;;;;;;10345752;28;20227;-74
2021/12/27 05:40:39;;;;;;;14.67;10.70;;;5.40;99.90;;;;;;10355536;28;20217;-74
2021/12/27 05:45:40;;;;;;;12.27;8.93;;;5.50;99.90;;;;;;10348139;28;20249;-75
2021/12/27 05:50:44;;;;;;;13.13;9.50;;;5.40;99.90;;;;;;10355393;28;20263;-74
2021/12/27 05:55:45;;;;;;;13.20;9.57;;;5.40;99.90;;;;;;10341318;28;20229;-74
2021/12/27 06:00:45;;;;;;;13.07;9.77;;;5.40;99.90;;;;;;10358155;28;20224;-75
2021/12/27 06:05:46;;;;;;;14.07;9.20;;;5.40;99.90;;;;;;10353289;28;20705;-75
2021/12/27 06:10:47;;;;;;;12.17;8.73;;;5.50;99.90;;;;;;10348213;28;20213;-74
2021/12/27 06:15:47;;;;;;;12.30;9.23;;;5.60;99.90;;;;;;10351550;28;20241;-75
2021/12/27 06:20:48;;;;;;;11.87;9.00;;;5.50;99.90;;;;;;10355031;28;20225;-74
2021/12/27 06:25:48;;;;;;;12.40;9.53;;;5.50;99.90;;;;;;10348330;28;20241;-73
2021/12/27 06:30:49;;;;;;;10.80;8.50;;;5.60;99.90;;;;;;10354092;28;20228;-74
2021/12/27 06:35:50;;;;;;;10.93;8.13;;;5.60;99.90;;;;;;10358472;28;20225;-73
2021/12/27 06:40:51;;;;;;;11.87;8.77;;;5.70;99.90;;;;;;10347281;28;20213;-74
2021/12/27 06:45:52;;;;;;;14.47;9.70;;;5.60;99.90;;;;;;10352911;28;20220;-74
2021/12/27 06:50:52;;;;;;;14.10;10.03;;;5.60;99.90;;;;;;10354136;28;20728;-74
2021/12/27 06:55:59;;;;;;;15.90;11.10;;;5.50;99.90;;;;;;10352609;28;20224;-74
2021/12/27 07:00:59;;;;;;;16.17;10.70;;;5.40;99.90;;;;;;10347798;28;20217;-74
2021/12/27 07:06:03;;;;;;;15.17;10.47;;;5.30;99.90;;;;;;10351430;28;20217;-74
2021/12/27 07:11:04;;;;;;;16.87;10.73;;;5.30;99.90;;;;;;10350318;28;20213;-75
2021/12/27 07:16:05;;;;;;;14.30;10.20;;;5.30;99.90;;;;;;10365237;28;20209;-74
2021/12/27 07:21:06;;;;;;;16.00;11.00;;;5.30;99.90;;;;;;10358449;28;20219;-75
2021/12/27 07:26:06;;;;;;;15.87;10.63;;;5.40;99.90;;;;;;10352868;28;20616;-75
2021/12/27 07:31:10;;;;;;;15.00;11.33;;;5.40;99.90;;;;;;10348216;28;20652;-75
2021/12/27 07:36:11;;;;;;;20.07;13.80;;;5.40;99.90;;;;;;10349368;28;20241;-74
2021/12/27 07:41:11;;;;;;;16.13;11.70;;;5.40;99.90;;;;;;10356554;28;20205;-75
2021/12/27 07:46:12;;;;;;;15.77;11.23;;;5.50;99.90;;;;;;10349063;28;20214;-74
2021/12/27 07:51:16;;;;;;;13.93;10.23;;;5.60;99.90;;;;;;10355191;28;20256;-75
2021/12/27 07:56:16;;;;;;;17.50;12.30;;;5.60;99.90;;;;;;10348172;28;20791;-74
2021/12/27 08:01:17;;;;;;;14.57;10.23;;;5.60;99.90;;;;;;10348716;28;20264;-74
2021/12/27 08:06:20;;;;;;;15.00;10.83;;;5.60;99.90;;;;;;10362975;28;20676;-75
2021/12/27 08:11:21;;;;;;;14.93;10.27;;;5.60;99.90;;;;;;10356285;28;20818;-75
2021/12/27 08:16:24;;;;;;;12.87;10.13;;;5.70;99.90;;;;;;10346473;28;20313;-75
2021/12/27 08:21:26;;;;;;;15.40;10.57;;;5.80;99.90;;;;;;10345498;28;20226;-75
2021/12/27 08:26:26;;;;;;;12.70;10.30;;;5.90;99.90;;;;;;10355941;28;20702;-75
2021/12/27 08:31:27;;;;;;;16.37;11.50;;;6.00;99.90;;;;;;10351947;28;20256;-74
2021/12/27 08:36:28;;;;;;;13.67;10.00;;;6.00;99.90;;;;;;10340988;28;20213;-74
2021/12/27 08:41:29;;;;;;;15.80;10.93;;;5.90;99.90;;;;;;10350880;28;20217;-74
2021/12/27 08:46:30;;;;;;;13.43;10.93;;;5.80;99.90;;;;;;10345888;28;20232;-75
2021/12/27 08:51:31;;;;;;;13.13;10.20;;;5.90;99.90;;;;;;10349644;28;20261;-74
2021/12/27 08:56:32;;;;;;;12.47;10.10;;;5.90;99.90;;;;;;10350722;28;20325;-74
2021/12/27 09:01:33;;;;;;;15.83;11.80;;;6.00;99.90;;;;;;10344657;28;20310;-75
2021/12/27 09:06:34;;;;;;;13.77;10.80;;;6.10;99.90;;;;;;10357484;28;20585;-73
2021/12/27 09:11:35;;;;;;;16.73;11.37;;;6.10;99.90;;;;;;10343194;28;20299;-74
2021/12/27 09:16:36;;;;;;;14.40;11.27;;;6.10;99.90;;;;;;10349787;28;20280;-74
2021/12/27 09:21:41;;;;;;;15.97;11.80;;;6.20;99.90;;;;;;10344697;28;20321;-75
2021/12/27 09:26:41;;;;;;;13.27;11.03;;;6.20;99.90;;;;;;10349799;28;20249;-74
2021/12/27 09:31:42;;;;;;;15.23;11.57;;;6.40;99.90;;;;;;10347115;28;20240;-74
2021/12/27 09:36:42;;;;;;;16.90;12.63;;;6.40;99.90;;;;;;10359731;28;20304;-75
2021/12/27 09:41:43;;;;;;;16.13;12.00;;;6.40;99.90;;;;;;10346935;28;20305;-74
2021/12/27 09:46:44;;;;;;;17.60;12.07;;;6.50;99.90;;;;;;10345530;28;20224;-74
2021/12/27 09:51:48;;;;;;;13.07;10.17;;;6.60;99.90;;;;;;10358528;28;20230;-74
2021/12/27 09:56:49;;;;;;;14.57;11.37;;;6.80;99.90;;;;;;10358462;28;20225;-74
2021/12/27 10:01:52;;;;;;;14.13;10.50;;;7.00;99.90;;;;;;10358232;28;20217;-75
2021/12/27 10:06:52;;;;;;;14.30;10.70;;;7.00;99.90;;;;;;10349427;28;20233;-74
2021/12/27 10:11:53;;;;;;;17.27;11.47;;;7.10;99.90;;;;;;10348069;28;20222;-75
2021/12/27 10:17:11;;;;;;;13.70;10.43;;;7.00;99.90;;;;;;10363056;28;20221;-74
2021/12/27 10:22:11;;;;;;;15.03;10.53;;;7.10;99.90;;;;;;10351679;28;20279;-74
2021/12/27 10:27:12;;;;;;;11.87;9.83;;;7.20;99.90;;;;;;10358274;28;20365;-74
2021/12/27 10:32:16;;;;;;;12.07;9.63;;;7.40;99.90;;;;;;10361662;28;20253;-75
2021/12/27 10:37:32;;;;;;;11.57;9.40;;;7.50;99.90;;;;;;10351730;28;20260;-74
2021/12/27 10:42:35;;;;;;;13.53;9.93;;;7.80;99.90;;;;;;10348445;28;20297;-74
2021/12/27 10:47:54;;;;;;;11.30;9.37;;;8.10;99.90;;;;;;10354998;28;20581;-74
2021/12/27 10:52:58;;;;;;;11.43;9.20;;;8.10;99.90;;;;;;10340638;28;20890;-74
2021/12/27 10:58:14;;;;;;;12.03;10.10;;;8.10;99.90;;;;;;10352100;28;20221;-74
2021/12/27 11:03:32;;;;;;;9.00;8.10;;;8.20;99.90;;;;;;10357533;28;20218;-75
2021/12/27 11:08:34;;;;;;;10.13;7.77;;;10.90;99.90;;;;;;10348155;28;20708;-75
2021/12/27 11:13:36;;;;;;;9.67;7.73;;;13.50;99.90;;;;;;10352480;28;20249;-74
2021/12/27 11:18:37;;;;;;;9.00;7.17;;;13.30;99.90;;;;;;10347370;28;20217;-74
2021/12/27 11:23:38;;;;;;;11.13;8.17;;;12.10;99.90;;;;;;10347528;28;20285;-74
2021/12/27 11:28:44;;;;;;;12.50;8.17;;;11.20;99.90;;;;;;10350659;28;20226;-75
2021/12/27 11:33:55;;;;;;;9.60;7.47;;;10.40;99.90;;;;;;10345138;28;20221;-75
2021/12/27 11:38:57;;;;;;;9.53;8.20;;;10.00;99.90;;;;;;10352250;28;20212;-75
2021/12/27 11:44:01;;;;;;;8.70;7.60;;;10.30;99.90;;;;;;10353417;28;20569;-74
2021/12/27 11:49:01;;;;;;;14.30;8.70;;;10.40;99.90;;;;;;10350061;28;20231;-74
2021/12/27 11:54:04;;;;;;;10.47;7.97;;;10.50;99.90;;;;;;10347779;28;20245;-74
2021/12/27 11:59:26;;;;;;;8.33;7.43;;;10.60;99.90;;;;;;10359714;28;20216;-74
2021/12/27 12:04:40;;;;;;;7.43;6.70;;;10.70;99.90;;;;;;10346682;28;20275;-74
2021/12/27 12:09:47;;;;;;;7.40;6.57;;;10.70;99.90;;;;;;10358001;28;20338;-75
2021/12/27 12:14:53;;;;;;;7.20;6.50;;;10.50;99.90;;;;;;10343523;28;20263;-74
2021/12/27 12:19:54;;;;;;;9.17;7.33;;;10.30;99.90;;;;;;10343253;28;20303;-75
2021/12/27 12:25:11;;;;;;;11.07;9.20;;;10.10;99.90;;;;;;10358085;28;20296;-74
2021/12/27 12:30:14;;;;;;;10.50;8.80;;;9.90;99.90;;;;;;10351508;28;20233;-75
2021/12/27 12:35:36;;;;;;;12.93;9.90;;;9.70;99.90;;;;;;10350885;28;20705;-74
2021/12/27 12:40:41;;;;;;;11.00;9.43;;;9.50;99.90;;;;;;10343345;28;20221;-74
2021/12/27 12:45:42;;;;;;;11.23;9.13;;;9.40;99.90;;;;;;10350066;28;20221;-74
2021/12/27 12:50:42;;;;;;;11.63;10.00;;;9.30;99.90;;;;;;10342070;28;20227;-74
2021/12/27 12:55:43;;;;;;;13.83;10.80;;;9.30;99.90;;;;;;10356547;28;20223;-75
2021/12/27 13:00:43;;;;;;;15.03;11.57;;;9.30;99.90;;;;;;10341838;28;20218;-75
2021/12/27 13:05:59;;;;;;;12.77;10.67;;;9.30;99.90;;;;;;10341052;28;20743;-76
2021/12/27 13:11:04;;;;;;;14.13;11.10;;;9.30;99.90;;;;;;10353493;28;20563;-75
2021/12/27 13:16:05;;;;;;;14.40;11.17;;;9.40;99.90;;;;;;10360840;28;20225;-76
2021/12/27 13:21:11;;;;;;;14.93;11.60;;;9.50;99.90;;;;;;10346328;28;20382;-75
2021/12/27 13:26:14;;;;;;;13.33;10.63;;;9.50;99.90;;;;;;10359384;28;20248;-76
2021/12/27 13:31:15;;;;;;;14.03;11.40;;;9.50;99.90;;;;;;10360588;28;20249;-75
2021/12/27 13:36:22;;;;;;;13.33;11.53;;;9.50;99.90;;;;;;10357058;28;20698;-75
2021/12/27 13:41:28;;;;;;;12.73;10.50;;;9.50;99.90;;;;;;10353037;28;20215;-73
2021/12/27 13:46:35;;;;;;;16.20;11.70;;;9.40;99.90;;;;;;10351575;28;20238;-70
2021/12/27 13:51:36;;;;;;;12.33;10.77;;;9.40;99.90;;;;;;10356543;28;22214;-74
2021/12/27 13:56:39;;;;;;;15.97;11.73;;;9.30;99.90;;;;;;10359598;28;20566;-75
2021/12/27 14:01:41;;;;;;;16.53;12.43;;;9.30;99.90;;;;;;10370155;28;20203;-74
2021/12/27 14:06:43;;;;;;;17.13;12.97;;;9.10;99.90;;;;;;10364897;28;20257;-75
2021/12/27 14:11:53;;;;;;;17.93;14.07;;;9.00;99.90;;;;;;10348506;28;20234;-72
2021/12/27 14:17:05;;;;;;;19.33;13.90;;;8.90;99.90;;;;;;10359678;28;20223;-73
2021/12/27 14:22:11;;;;;;;15.77;13.13;;;8.80;99.90;;;;;;10355316;28;20684;-72
2021/12/27 14:27:20;;;;;;;17.67;13.43;;;8.80;99.90;;;;;;10363536;28;20226;-73
2021/12/27 14:32:23;;;;;;;15.30;12.97;;;8.70;99.90;;;;;;10362343;28;20329;-70
2021/12/27 14:37:24;;;;;;;19.17;13.60;;;8.60;99.90;;;;;;10346790;28;20227;-72
2021/12/27 14:42:26;;;;;;;19.53;14.23;;;8.60;99.90;;;;;;10353814;28;20685;-72
2021/12/27 14:47:28;;;;;;;19.37;13.83;;;8.60;99.90;;;;;;10368272;28;20702;-73
2021/12/27 14:52:28;;;;;;;18.10;13.97;;;8.50;99.90;;;;;;10365180;28;20235;-70
2021/12/27 14:57:29;;;;;;;17.50;14.27;;;8.40;99.90;;;;;;10366151;28;20226;-71
2021/12/27 15:02:29;;;;;;;18.30;13.90;;;8.40;99.90;;;;;;10366831;28;20232;-72
2021/12/27 15:07:30;;;;;;;22.23;15.43;;;8.30;99.90;;;;;;10365912;28;20742;-72
2021/12/27 15:12:31;;;;;;;25.30;18.67;;;8.30;99.90;;;;;;10365850;28;20225;-74
2021/12/27 15:17:32;;;;;;;29.00;19.57;;;8.30;99.90;;;;;;10364541;28;20214;-73
2021/12/27 15:22:32;;;;;;;25.70;18.07;;;8.20;99.90;;;;;;10365643;28;20245;-72
2021/12/27 15:27:33;;;;;;;27.70;18.87;;;8.20;99.90;;;;;;10364017;28;20222;-71
2021/12/27 15:32:37;;;;;;;27.87;18.53;;;8.10;99.90;;;;;;10366656;28;20277;-72
2021/12/27 15:37:38;;;;;;;30.77;19.17;;;8.10;99.90;;;;;;10367333;28;20773;-72
2021/12/27 15:42:46;;;;;;;42.03;25.80;;;8.10;99.90;;;;;;10364167;28;20226;-71
2021/12/27 15:47:47;;;;;;;33.07;20.50;;;8.10;99.90;;;;;;10360700;28;20254;-70
2021/12/27 15:52:48;;;;;;;27.37;18.57;;;8.10;99.90;;;;;;10378593;28;20254;-71
2021/12/27 15:57:49;;;;;;;31.13;18.90;;;8.00;99.90;;;;;;10358805;28;20262;-70
2021/12/27 16:02:50;;;;;;;29.63;18.40;;;8.10;99.90;;;;;;10357979;28;20227;-72
2021/12/27 16:07:53;;;;;;;28.17;18.17;;;8.10;99.90;;;;;;10365064;28;20222;-73
2021/12/27 16:12:55;;;;;;;31.87;19.53;;;8.00;99.90;;;;;;10360793;28;20249;-72
2021/12/27 16:17:57;;;;;;;32.23;21.77;;;8.00;99.90;;;;;;10356199;28;20220;-72
2021/12/27 16:22:57;;;;;;;39.30;24.83;;;8.10;99.90;;;;;;10362233;28;20446;-74
2021/12/27 16:27:58;;;;;;;34.33;23.23;;;8.00;99.90;;;;;;10358423;28;20228;-71
2021/12/27 16:32:59;;;;;;;39.73;23.23;;;8.00;99.90;;;;;;10358995;28;20234;-71
2021/12/27 16:38:00;;;;;;;39.10;24.03;;;7.90;99.90;;;;;;10359983;28;20229;-72
2021/12/27 16:43:00;;;;;;;32.97;20.97;;;7.90;99.90;;;;;;10361670;28;20218;-71
2021/12/27 16:48:03;;;;;;;31.57;21.00;;;7.90;99.90;;;;;;10363156;28;20236;-71
2021/12/27 16:53:06;;;;;;;32.33;21.47;;;7.90;99.90;;;;;;10364475;28;20312;-71
2021/12/27 16:58:07;;;;;;;38.93;22.73;;;7.80;99.90;;;;;;10365325;28;20222;-72
2021/12/27 17:03:09;;;;;;;30.00;19.83;;;7.80;99.90;;;;;;10353536;28;20309;-70
2021/12/27 17:08:09;;;;;;;29.47;20.10;;;7.80;99.90;;;;;;10362079;28;20228;-71
2021/12/27 17:13:10;;;;;;;34.40;20.67;;;7.80;99.90;;;;;;10360538;28;20227;-69
2021/12/27 17:18:13;;;;;;;28.90;19.03;;;7.80;99.90;;;;;;10360458;28;20248;-71
2021/12/27 17:23:14;;;;;;;29.73;20.47;;;7.80;99.90;;;;;;10356929;28;20234;-71
2021/12/27 17:28:15;;;;;;;30.57;19.53;;;7.80;99.90;;;;;;10353528;28;20553;-72
2021/12/27 17:33:17;;;;;;;31.47;18.63;;;7.80;99.90;;;;;;10363181;28;20231;-72
2021/12/27 17:38:18;;;;;;;39.73;25.10;;;7.70;99.90;;;;;;10364739;28;20646;-71
2021/12/27 17:43:23;;;;;;;38.87;24.40;;;7.70;99.90;;;;;;10359986;28;20218;-71
2021/12/27 17:48:24;;;;;;;37.67;23.20;;;7.70;99.90;;;;;;10354292;28;20224;-73
2021/12/27 17:53:25;;;;;;;37.87;22.93;;;7.60;99.90;;;;;;10364206;28;20225;-71
2021/12/27 17:58:25;;;;;;;36.87;23.17;;;7.60;99.90;;;;;;10359254;28;20246;-72
2021/12/27 18:03:27;;;;;;;34.83;23.40;;;7.60;99.90;;;;;;10358156;28;20230;-73
2021/12/27 18:08:28;;;;;;;32.10;20.87;;;7.70;99.90;;;;;;10362694;28;20297;-72
2021/12/27 18:13:29;;;;;;;29.60;20.03;;;7.70;99.90;;;;;;10371660;28;20231;-70
2021/12/27 18:18:30;;;;;;;36.13;23.03;;;7.80;99.90;;;;;;10368462;28;20271;-71
2021/12/27 18:23:32;;;;;;;26.03;18.63;;;7.90;99.90;;;;;;10369621;28;20242;-71
2021/12/27 18:28:36;;;;;;;31.20;20.83;;;7.90;99.90;;;;;;10365067;28;20318;-72
2021/12/27 18:33:37;;;;;;;27.13;19.57;;;8.00;99.90;;;;;;10369690;28;20251;-71
2021/12/27 18:38:38;;;;;;;25.40;18.10;;;8.00;99.90;;;;;;10370724;28;20690;-74
2021/12/27 18:43:39;;;;;;;19.63;13.57;;;8.00;99.90;;;;;;10365903;28;20213;-73
2021/12/27 18:48:39;;;;;;;15.17;13.30;;;8.00;99.90;;;;;;10369106;28;20466;-75
2021/12/27 18:53:40;;;;;;;11.63;9.37;;;8.20;99.90;;;;;;10367190;28;20223;-75
2021/12/27 18:58:43;;;;;;;9.57;7.30;;;8.40;99.90;;;;;;10362544;28;20249;-74
2021/12/27 19:03:45;;;;;;;9.83;7.43;;;8.50;99.90;;;;;;10356301;28;20310;-73
2021/12/27 19:08:47;;;;;;;9.53;7.37;;;8.60;99.90;;;;;;10357372;28;20227;-74
2021/12/27 19:13:49;;;;;;;10.50;7.23;;;8.70;99.90;;;;;;10368934;28;20249;-74
2021/12/27 19:18:50;;;;;;;10.98;9.85;;;8.70;99.90;;;;;;10359912;28;20459;-73
2021/12/27 19:23:51;;;;;;;11.30;9.37;;;8.80;99.90;;;;;;10362425;28;20698;-74
2021/12/27 19:28:52;;;;;;;9.23;6.50;;;8.80;99.90;;;;;;10359943;28;20218;-73
2021/12/27 19:33:54;;;;;;;9.70;6.70;;;8.80;99.90;;;;;;10366725;28;20230;-74
2021/12/27 19:38:54;;;;;;;10.77;6.47;;;8.90;99.90;;;;;;10365912;28;20306;-74
2021/12/27 19:43:55;;;;;;;11.13;7.03;;;8.90;99.90;;;;;;10358614;28;20808;-75
2021/12/27 19:48:56;;;;;;;9.80;7.27;;;8.90;99.90;;;;;;10355513;28;20230;-74
2021/12/27 19:53:57;;;;;;;7.20;5.53;;;8.90;99.90;;;;;;10362655;28;20318;-72
2021/12/27 19:58:57;;;;;;;8.57;5.23;;;9.00;99.90;;;;;;10365559;28;20223;-74
2021/12/27 20:04:00;;;;;;;5.73;4.57;;;9.00;99.90;;;;;;10364180;28;20321;-72
2021/12/27 20:09:00;;;;;;;6.33;4.90;;;9.00;99.90;;;;;;10366801;28;20219;-71
2021/12/27 20:14:02;;;;;;;7.97;4.57;;;9.10;99.90;;;;;;10360890;28;20853;-72
2021/12/27 20:19:03;;;;;;;5.80;4.73;;;9.10;99.90;;;;;;10367490;28;20220;-73
2021/12/27 20:24:06;;;;;;;5.23;4.57;;;9.00;99.90;;;;;;10357470;28;20656;-73
2021/12/27 20:29:07;;;;;;;5.67;4.60;;;9.10;99.90;;;;;;10362791;28;20223;-73
2021/12/27 20:34:08;;;;;;;5.87;5.00;;;9.10;99.90;;;;;;10361140;28;20223;-71
2021/12/27 20:39:09;;;;;;;6.37;5.57;;;9.20;99.90;;;;;;10362802;28;20590;-72
2021/12/27 20:44:09;;;;;;;6.00;5.03;;;9.20;99.90;;;;;;10353472;28;20220;-72
2021/12/27 20:49:10;;;;;;;6.53;5.17;;;9.20;99.90;;;;;;10358684;28;20767;-72
2021/12/27 20:54:11;;;;;;;6.13;5.53;;;9.20;99.90;;;;;;10352475;28;20226;-72
2021/12/27 20:59:12;;;;;;;10.17;6.33;;;9.20;99.90;;;;;;10380399;28;20249;-72
2021/12/27 21:04:13;;;;;;;7.47;6.67;;;9.20;99.90;;;;;;10356084;28;20343;-71
2021/12/27 21:09:14;;;;;;;9.43;7.07;;;9.20;99.90;;;;;;10368447;28;20215;-72
2021/12/27 21:14:15;;;;;;;8.90;7.00;;;9.10;99.90;;;;;;10364374;28;20749;-72
2021/12/27 21:19:15;;;;;;;9.10;8.10;;;9.10;99.90;;;;;;10355253;28;20217;-72
2021/12/27 21:24:16;;;;;;;9.67;8.13;;;9.10;99.90;;;;;;10365489;28;20643;-72
2021/12/27 21:29:18;;;;;;;10.23;8.00;;;9.00;99.90;;;;;;10359046;28;20227;-72
2021/12/27 21:34:18;;;;;;;8.90;8.00;;;9.00;99.90;;;;;;10359904;28;20578;-73
2021/12/27 21:39:19;;;;;;;10.07;8.80;;;9.00;99.90;;;;;;10361257;28;20226;-72
2021/12/27 21:44:20;;;;;;;9.93;9.03;;;9.00;99.90;;;;;;10357159;28;20600;-74
2021/12/27 21:49:20;;;;;;;12.30;11.00;;;9.00;99.90;;;;;;10362824;28;20724;-72
2021/12/27 21:54:21;;;;;;;10.67;9.57;;;9.00;99.90;;;;;;10363562;28;20236;-71
2021/12/27 21:59:22;;;;;;;11.20;9.60;;;9.00;99.90;;;;;;10366439;28;20219;-71
2021/12/27 22:04:23;;;;;;;13.87;11.07;;;9.00;99.90;;;;;;10371374;28;20364;-71
2021/12/27 22:09:24;;;;;;;13.50;10.20;;;9.00;99.90;;;;;;10365863;28;20294;-72
2021/12/27 22:14:26;;;;;;;12.13;10.83;;;9.10;99.90;;;;;;10364222;28;20223;-72
2021/12/27 22:19:26;;;;;;;12.50;11.30;;;9.00;99.90;;;;;;10366291;28;20212;-72
2021/12/27 22:24:27;;;;;;;15.37;11.93;;;9.00;99.90;;;;;;10370700;28;20221;-71
2021/12/27 22:29:27;;;;;;;12.17;10.53;;;9.00;99.90;;;;;;10362673;28;20227;-72
2021/12/27 22:34:28;;;;;;;12.57;11.03;;;9.00;99.90;;;;;;10366745;28;20220;-72
2021/12/27 22:39:29;;;;;;;12.20;11.00;;;9.00;99.90;;;;;;10356311;28;20298;-71
2021/12/27 22:44:29;;;;;;;11.87;10.43;;;9.00;99.90;;;;;;10361804;28;20231;-72
2021/12/27 22:49:30;;;;;;;14.27;11.83;;;9.00;99.90;;;;;;10368805;28;20381;-72
2021/12/27 22:54:30;;;;;;;13.80;11.27;;;9.00;99.90;;;;;;10369282;28;20223;-72
2021/12/27 22:59:31;;;;;;;11.60;10.40;;;8.90;99.90;;;;;;10361694;28;20265;-70
2021/12/27 23:04:32;;;;;;;12.83;11.13;;;8.70;99.90;;;;;;10365050;28;20215;-71
2021/12/27 23:09:32;;;;;;;11.63;9.37;;;8.70;99.90;;;;;;10367250;28;20223;-72
2021/12/27 23:14:33;;;;;;;10.73;8.90;;;8.80;99.90;;;;;;10367744;28;20228;-71
2021/12/27 23:19:33;;;;;;;9.27;8.07;;;8.90;99.90;;;;;;10366696;28;20226;-71
2021/12/27 23:24:34;;;;;;;10.77;7.90;;;9.00;99.90;;;;;;10368403;28;20221;-70
2021/12/27 23:29:35;;;;;;;7.60;6.80;;;9.00;99.90;;;;;;10357602;28;20223;-75
2021/12/27 23:34:36;;;;;;;9.67;7.37;;;9.10;99.90;;;;;;10358948;28;20218;-73
2021/12/27 23:39:37;;;;;;;7.80;7.00;;;9.10;99.90;;;;;;10361952;28;20229;-74
2021/12/27 23:44:37;;;;;;;8.37;6.87;;;9.10;99.90;;;;;;10351567;28;20248;-74
2021/12/27 23:49:38;;;;;;;9.70;6.87;;;9.10;99.90;;;;;;10365249;28;20297;-74
2021/12/27 23:54:38;;;;;;;10.60;6.83;;;9.10;99.90;;;;;;10364216;28;20281;-74
2021/12/27 23:59:39;;;;;;;8.47;6.70;;;9.00;99.90;;;;;;10362733;28;20242;-70
